sensor_id;sensor_type;location;lat;lon;timestamp;temperature;humidity
32694;DHT22;19084;44.716;10.218;2022-08-03T00:00:15;25.80;99.90
32694;DHT22;19084;44.716;10.218;2022-08-03T00:02:48;25.80;99.90
32694;DHT22;19084;44.716;10.218;2022-08-03T00:05:21;25.80;99.90
32694;DHT22;19084;44.716;10.218;2022-08-03T00:07:53;25.70;99.90
32694;DHT22;19084;44.716;10.218;2022-08-03T00:10:26;25.70;99.90
32694;DHT22;19084;44.716;10.218;2022-08-03T00:12:59;25.60;99.90
32694;DHT22;19084;44.716;10.218;2022-08-03T00:15:32;25.60;99.90
32694;DHT22;19084;44.716;10.218;2022-08-03T00:18:05;25.60;99.90
32694;DHT22;19084;44.716;10.218;2022-08-03T00:20:37;25.60;99.90
32694;DHT22;19084;44.716;10.218;2022-08-03T00:23:10;25.50;99.90
32694;DHT22;19084;44.716;10.218;2022-08-03T00:25:43;25.50;99.90
32694;DHT22;19084;44.716;10.218;2022-08-03T00:28:15;25.60;99.90
32694;DHT22;19084;44.716;10.218;2022-08-03T00:30:49;25.60;99.90
32694;DHT22;19084;44.716;10.218;2022-08-03T00:33:22;25.60;99.90
32694;DHT22;19084;44.716;10.218;2022-08-03T00:35:58;25.60;99.90
32694;DHT22;19084;44.716;10.218;2022-08-03T00:38:31;23.00;99.90
32694;DHT22;19084;44.716;10.218;2022-08-03T00:41:03;25.50;99.90
32694;DHT22;19084;44.716;10.218;2022-08-03T00:43:36;25.60;99.90
32694;DHT22;19084;44.716;10.218;2022-08-03T00:46:08;25.60;99.90
32694;DHT22;19084;44.716;10.218;2022-08-03T00:48:41;25.60;99.90
32694;DHT22;19084;44.716;10.218;2022-08-03T00:51:14;25.50;99.90
32694;DHT22;19084;44.716;10.218;2022-08-03T00:53:47;25.60;99.90
32694;DHT22;19084;44.716;10.218;2022-08-03T00:56:20;25.60;99.90
32694;DHT22;19084;44.716;10.218;2022-08-03T00:58:56;25.50;99.90
32694;DHT22;19084;44.716;10.218;2022-08-03T01:01:30;25.50;99.90
32694;DHT22;19084;44.716;10.218;2022-08-03T01:04:03;25.50;99.90
32694;DHT22;19084;44.716;10.218;2022-08-03T01:09:52;25.50;99.90
32694;DHT22;19084;44.716;10.218;2022-08-03T01:18:07;25.50;99.90
32694;DHT22;19084;44.716;10.218;2022-08-03T01:20:44;25.40;99.90
32694;DHT22;19084;44.716;10.218;2022-08-03T01:31:56;25.30;99.90
32694;DHT22;19084;44.716;10.218;2022-08-03T01:34:58;25.30;99.90
32694;DHT22;19084;44.716;10.218;2022-08-03T01:38:01;25.30;99.90
32694;DHT22;19084;44.716;10.218;2022-08-03T01:40:33;25.30;99.90
32694;DHT22;19084;44.716;10.218;2022-08-03T01:43:09;25.20;99.90
32694;DHT22;19084;44.716;10.218;2022-08-03T01:45:46;25.20;99.90
32694;DHT22;19084;44.716;10.218;2022-08-03T01:48:20;25.30;99.90
32694;DHT22;19084;44.716;10.218;2022-08-03T01:50:55;25.30;99.90
32694;DHT22;19084;44.716;10.218;2022-08-03T01:53:30;25.30;99.90
32694;DHT22;19084;44.716;10.218;2022-08-03T01:56:05;25.20;99.90
32694;DHT22;19084;44.716;10.218;2022-08-03T01:58:40;25.40;99.90
32694;DHT22;19084;44.716;10.218;2022-08-03T02:01:15;25.20;99.90
32694;DHT22;19084;44.716;10.218;2022-08-03T02:03:48;25.20;99.90
32694;DHT22;19084;44.716;10.218;2022-08-03T02:06:33;25.20;99.90
32694;DHT22;19084;44.716;10.218;2022-08-03T02:09:28;25.20;99.90
32694;DHT22;19084;44.716;10.218;2022-08-03T02:12:03;25.20;99.90
32694;DHT22;19084;44.716;10.218;2022-08-03T02:14:40;25.20;99.90
32694;DHT22;19084;44.716;10.218;2022-08-03T02:17:15;25.00;99.90
32694;DHT22;19084;44.716;10.218;2022-08-03T02:19:48;25.00;99.90
32694;DHT22;19084;44.716;10.218;2022-08-03T02:22:23;24.90;99.90
32694;DHT22;19084;44.716;10.218;2022-08-03T02:24:56;24.60;99.90
32694;DHT22;19084;44.716;10.218;2022-08-03T02:27:33;24.50;99.90
32694;DHT22;19084;44.716;10.218;2022-08-03T02:30:14;24.50;99.90
32694;DHT22;19084;44.716;10.218;2022-08-03T02:32:53;24.50;99.90
32694;DHT22;19084;44.716;10.218;2022-08-03T02:35:29;24.60;99.90
32694;DHT22;19084;44.716;10.218;2022-08-03T02:38:04;24.60;99.90
32694;DHT22;19084;44.716;10.218;2022-08-03T02:40:39;24.60;99.90
32694;DHT22;19084;44.716;10.218;2022-08-03T02:43:18;24.60;99.90
32694;DHT22;19084;44.716;10.218;2022-08-03T02:45:52;23.90;99.90
32694;DHT22;19084;44.716;10.218;2022-08-03T02:48:28;24.60;99.90
32694;DHT22;19084;44.716;10.218;2022-08-03T02:51:03;24.60;99.90
32694;DHT22;19084;44.716;10.218;2022-08-03T02:53:36;24.50;99.90
32694;DHT22;19084;44.716;10.218;2022-08-03T02:56:11;23.20;99.90
32694;DHT22;19084;44.716;10.218;2022-08-03T02:58:46;24.40;99.90
32694;DHT22;19084;44.716;10.218;2022-08-03T03:01:22;24.30;99.90
32694;DHT22;19084;44.716;10.218;2022-08-03T03:03:56;24.30;99.90
32694;DHT22;19084;44.716;10.218;2022-08-03T03:06:32;24.40;99.90
32694;DHT22;19084;44.716;10.218;2022-08-03T03:09:07;24.40;99.90
32694;DHT22;19084;44.716;10.218;2022-08-03T03:11:41;24.20;99.90
32694;DHT22;19084;44.716;10.218;2022-08-03T03:14:17;24.10;99.90
32694;DHT22;19084;44.716;10.218;2022-08-03T03:17:11;24.10;99.90
32694;DHT22;19084;44.716;10.218;2022-08-03T03:19:47;24.00;99.90
32694;DHT22;19084;44.716;10.218;2022-08-03T03:22:22;24.00;99.90
32694;DHT22;19084;44.716;10.218;2022-08-03T03:24:56;24.00;99.90
32694;DHT22;19084;44.716;10.218;2022-08-03T03:27:29;23.90;99.90
32694;DHT22;19084;44.716;10.218;2022-08-03T03:30:03;24.00;99.90
32694;DHT22;19084;44.716;10.218;2022-08-03T03:32:36;23.90;99.90
32694;DHT22;19084;44.716;10.218;2022-08-03T03:35:13;23.90;99.90
32694;DHT22;19084;44.716;10.218;2022-08-03T03:37:46;23.90;99.90
32694;DHT22;19084;44.716;10.218;2022-08-03T03:40:19;23.90;99.90
32694;DHT22;19084;44.716;10.218;2022-08-03T03:42:52;26.20;99.90
32694;DHT22;19084;44.716;10.218;2022-08-03T03:45:25;23.90;99.90
32694;DHT22;19084;44.716;10.218;2022-08-03T03:48:03;23.90;99.90
32694;DHT22;19084;44.716;10.218;2022-08-03T03:50:37;23.90;99.90
32694;DHT22;19084;44.716;10.218;2022-08-03T03:53:13;23.90;99.90
32694;DHT22;19084;44.716;10.218;2022-08-03T04:04:26;23.70;99.90
32694;DHT22;19084;44.716;10.218;2022-08-03T04:07:18;23.70;99.90
32694;DHT22;19084;44.716;10.218;2022-08-03T04:10:45;23.70;99.90
32694;DHT22;19084;44.716;10.218;2022-08-03T04:13:56;23.70;99.90
32694;DHT22;19084;44.716;10.218;2022-08-03T04:16:37;23.60;99.90
32694;DHT22;19084;44.716;10.218;2022-08-03T04:19:29;23.60;99.90
32694;DHT22;19084;44.716;10.218;2022-08-03T04:22:29;23.60;99.90
32694;DHT22;19084;44.716;10.218;2022-08-03T04:25:13;23.50;99.90
32694;DHT22;19084;44.716;10.218;2022-08-03T04:27:49;23.60;99.90
32694;DHT22;19084;44.716;10.218;2022-08-03T04:31:37;23.50;99.90
32694;DHT22;19084;44.716;10.218;2022-08-03T04:34:11;23.50;99.90
32694;DHT22;19084;44.716;10.218;2022-08-03T04:36:47;23.50;99.90
32694;DHT22;19084;44.716;10.218;2022-08-03T04:39:41;23.50;99.90
32694;DHT22;19084;44.716;10.218;2022-08-03T04:42:39;23.50;99.90
32694;DHT22;19084;44.716;10.218;2022-08-03T04:49:42;23.60;99.90
32694;DHT22;19084;44.716;10.218;2022-08-03T04:52:17;23.60;99.90
32694;DHT22;19084;44.716;10.218;2022-08-03T04:54:56;25.90;99.90
32694;DHT22;19084;44.716;10.218;2022-08-03T04:57:52;23.70;99.90
32694;DHT22;19084;44.716;10.218;2022-08-03T05:00:53;23.80;99.90
32694;DHT22;19084;44.716;10.218;2022-08-03T05:03:46;23.90;99.90
32694;DHT22;19084;44.716;10.218;2022-08-03T05:06:44;24.00;99.90
32694;DHT22;19084;44.716;10.218;2022-08-03T05:09:22;24.00;99.90
32694;DHT22;19084;44.716;10.218;2022-08-03T05:12:56;24.00;99.90
32694;DHT22;19084;44.716;10.218;2022-08-03T05:28:48;24.20;99.90
32694;DHT22;19084;44.716;10.218;2022-08-03T05:31:22;24.20;99.90
32694;DHT22;19084;44.716;10.218;2022-08-03T05:33:56;24.40;99.90
32694;DHT22;19084;44.716;10.218;2022-08-03T05:36:28;24.20;99.90
32694;DHT22;19084;44.716;10.218;2022-08-03T05:39:26;24.30;99.90
32694;DHT22;19084;44.716;10.218;2022-08-03T05:42:21;24.40;99.90
32694;DHT22;19084;44.716;10.218;2022-08-03T05:44:58;24.50;99.90
32694;DHT22;19084;44.716;10.218;2022-08-03T05:47:36;24.50;99.90
32694;DHT22;19084;44.716;10.218;2022-08-03T05:53:33;24.70;99.90
32694;DHT22;19084;44.716;10.218;2022-08-03T06:00:20;24.80;99.90
32694;DHT22;19084;44.716;10.218;2022-08-03T06:02:57;25.00;99.90
32694;DHT22;19084;44.716;10.218;2022-08-03T06:06:00;25.00;99.90
32694;DHT22;19084;44.716;10.218;2022-08-03T06:08:58;25.00;99.90
32694;DHT22;19084;44.716;10.218;2022-08-03T06:11:39;25.10;99.90
32694;DHT22;19084;44.716;10.218;2022-08-03T06:18:04;25.20;99.90
32694;DHT22;19084;44.716;10.218;2022-08-03T06:20:53;25.40;99.90
32694;DHT22;19084;44.716;10.218;2022-08-03T06:23:51;24.70;99.90
32694;DHT22;19084;44.716;10.218;2022-08-03T06:26:27;25.90;99.90
32694;DHT22;19084;44.716;10.218;2022-08-03T06:32:33;26.60;99.90
32694;DHT22;19084;44.716;10.218;2022-08-03T06:35:28;26.80;99.90
32694;DHT22;19084;44.716;10.218;2022-08-03T06:41:59;27.30;99.90
32694;DHT22;19084;44.716;10.218;2022-08-03T06:44:32;27.60;99.90
32694;DHT22;19084;44.716;10.218;2022-08-03T06:47:05;27.60;99.90
32694;DHT22;19084;44.716;10.218;2022-08-03T06:49:37;27.90;99.90
32694;DHT22;19084;44.716;10.218;2022-08-03T06:52:12;27.90;99.90
32694;DHT22;19084;44.716;10.218;2022-08-03T06:55:11;28.20;99.90
32694;DHT22;19084;44.716;10.218;2022-08-03T06:57:44;28.20;99.90
32694;DHT22;19084;44.716;10.218;2022-08-03T07:00:17;28.40;99.90
32694;DHT22;19084;44.716;10.218;2022-08-03T07:02:50;28.60;99.90
32694;DHT22;19084;44.716;10.218;2022-08-03T07:05:28;28.00;99.90
32694;DHT22;19084;44.716;10.218;2022-08-03T07:08:04;28.90;99.90
32694;DHT22;19084;44.716;10.218;2022-08-03T07:10:37;28.90;99.90
32694;DHT22;19084;44.716;10.218;2022-08-03T07:13:10;29.20;99.90
32694;DHT22;19084;44.716;10.218;2022-08-03T07:15:43;28.80;99.90
32694;DHT22;19084;44.716;10.218;2022-08-03T07:18:27;29.40;99.90
32694;DHT22;19084;44.716;10.218;2022-08-03T07:21:01;29.60;99.90
32694;DHT22;19084;44.716;10.218;2022-08-03T07:23:34;29.60;99.90
32694;DHT22;19084;44.716;10.218;2022-08-03T07:26:06;29.70;99.90
32694;DHT22;19084;44.716;10.218;2022-08-03T07:28:39;29.90;99.90
32694;DHT22;19084;44.716;10.218;2022-08-03T07:31:12;30.10;99.90
32694;DHT22;19084;44.716;10.218;2022-08-03T07:33:44;30.20;99.90
32694;DHT22;19084;44.716;10.218;2022-08-03T07:36:17;30.30;99.90
32694;DHT22;19084;44.716;10.218;2022-08-03T07:38:50;30.30;99.90
32694;DHT22;19084;44.716;10.218;2022-08-03T07:41:23;30.30;99.90
32694;DHT22;19084;44.716;10.218;2022-08-03T07:43:56;30.40;99.90
32694;DHT22;19084;44.716;10.218;2022-08-03T07:46:29;30.40;99.90
32694;DHT22;19084;44.716;10.218;2022-08-03T07:49:01;30.70;99.90
32694;DHT22;19084;44.716;10.218;2022-08-03T07:51:34;30.70;99.90
32694;DHT22;19084;44.716;10.218;2022-08-03T07:54:07;30.80;99.90
32694;DHT22;19084;44.716;10.218;2022-08-03T07:56:41;30.80;99.90
32694;DHT22;19084;44.716;10.218;2022-08-03T07:59:14;30.80;99.90
32694;DHT22;19084;44.716;10.218;2022-08-03T08:01:47;30.80;99.90
32694;DHT22;19084;44.716;10.218;2022-08-03T08:04:19;30.80;99.90
32694;DHT22;19084;44.716;10.218;2022-08-03T08:06:52;30.80;99.90
32694;DHT22;19084;44.716;10.218;2022-08-03T08:09:25;30.90;99.90
32694;DHT22;19084;44.716;10.218;2022-08-03T08:14:34;31.10;99.90
32694;DHT22;19084;44.716;10.218;2022-08-03T08:17:07;31.10;99.90
32694;DHT22;19084;44.716;10.218;2022-08-03T08:19:39;31.20;99.90
32694;DHT22;19084;44.716;10.218;2022-08-03T08:22:22;31.30;99.90
32694;DHT22;19084;44.716;10.218;2022-08-03T08:25:02;31.40;99.90
32694;DHT22;19084;44.716;10.218;2022-08-03T08:27:44;31.40;99.90
32694;DHT22;19084;44.716;10.218;2022-08-03T08:30:37;31.60;99.90
32694;DHT22;19084;44.716;10.218;2022-08-03T08:33:10;31.60;99.90
32694;DHT22;19084;44.716;10.218;2022-08-03T08:35:55;31.60;99.90
32694;DHT22;19084;44.716;10.218;2022-08-03T08:38:34;31.70;99.90
32694;DHT22;19084;44.716;10.218;2022-08-03T08:41:09;31.80;99.90
32694;DHT22;19084;44.716;10.218;2022-08-03T08:43:42;31.70;99.90
32694;DHT22;19084;44.716;10.218;2022-08-03T08:48:56;31.90;99.90
32694;DHT22;19084;44.716;10.218;2022-08-03T08:57:08;32.20;99.90
32694;DHT22;19084;44.716;10.218;2022-08-03T09:05:14;32.20;99.90
32694;DHT22;19084;44.716;10.218;2022-08-03T09:07:48;32.40;99.90
32694;DHT22;19084;44.716;10.218;2022-08-03T09:23:10;32.40;99.90
32694;DHT22;19084;44.716;10.218;2022-08-03T09:28:38;32.50;99.90
32694;DHT22;19084;44.716;10.218;2022-08-03T09:31:32;32.60;99.90
32694;DHT22;19084;44.716;10.218;2022-08-03T09:34:08;32.60;99.80
32694;DHT22;19084;44.716;10.218;2022-08-03T09:36:47;32.80;99.70
32694;DHT22;19084;44.716;10.218;2022-08-03T09:39:22;32.80;99.50
32694;DHT22;19084;44.716;10.218;2022-08-03T09:42:16;32.80;99.90
32694;DHT22;19084;44.716;10.218;2022-08-03T09:47:30;32.90;99.90
32694;DHT22;19084;44.716;10.218;2022-08-03T09:52:39;32.90;99.10
32694;DHT22;19084;44.716;10.218;2022-08-03T09:58:18;32.90;98.50
32694;DHT22;19084;44.716;10.218;2022-08-03T10:01:03;33.00;98.40
32694;DHT22;19084;44.716;10.218;2022-08-03T10:03:39;33.10;98.40
32694;DHT22;19084;44.716;10.218;2022-08-03T10:06:33;33.20;98.90
32694;DHT22;19084;44.716;10.218;2022-08-03T10:11:46;33.20;97.60
32694;DHT22;19084;44.716;10.218;2022-08-03T10:14:46;32.40;98.00
32694;DHT22;19084;44.716;10.218;2022-08-03T10:17:20;33.20;97.80
32694;DHT22;19084;44.716;10.218;2022-08-03T10:19:53;33.50;97.40
32694;DHT22;19084;44.716;10.218;2022-08-03T10:22:28;33.40;97.10
32694;DHT22;19084;44.716;10.218;2022-08-03T10:25:12;33.40;97.00
32694;DHT22;19084;44.716;10.218;2022-08-03T10:28:12;33.40;97.10
32694;DHT22;19084;44.716;10.218;2022-08-03T10:39:44;33.50;95.70
32694;DHT22;19084;44.716;10.218;2022-08-03T10:47:03;33.50;95.00
32694;DHT22;19084;44.716;10.218;2022-08-03T11:16:49;33.90;94.00
32694;DHT22;19084;44.716;10.218;2022-08-03T11:21:15;34.10;93.90
32694;DHT22;19084;44.716;10.218;2022-08-03T11:28:41;34.10;94.40
32694;DHT22;19084;44.716;10.218;2022-08-03T11:31:43;34.40;93.50
32694;DHT22;19084;44.716;10.218;2022-08-03T11:35:10;34.40;93.40
32694;DHT22;19084;44.716;10.218;2022-08-03T11:38:09;34.40;93.30
32694;DHT22;19084;44.716;10.218;2022-08-03T11:40:45;34.50;93.80
32694;DHT22;19084;44.716;10.218;2022-08-03T11:48:57;34.60;93.20
32694;DHT22;19084;44.716;10.218;2022-08-03T11:54:19;34.80;92.50
32694;DHT22;19084;44.716;10.218;2022-08-03T11:57:36;34.80;92.90
32694;DHT22;19084;44.716;10.218;2022-08-03T12:09:01;34.90;92.60
32694;DHT22;19084;44.716;10.218;2022-08-03T12:33:23;35.20;91.60
32694;DHT22;19084;44.716;10.218;2022-08-03T12:36:07;35.30;91.40
32694;DHT22;19084;44.716;10.218;2022-08-03T12:38:54;35.40;90.80
32694;DHT22;19084;44.716;10.218;2022-08-03T12:41:38;35.50;91.00
32694;DHT22;19084;44.716;10.218;2022-08-03T12:45:35;35.60;91.00
32694;DHT22;19084;44.716;10.218;2022-08-03T12:48:09;35.60;91.20
32694;DHT22;19084;44.716;10.218;2022-08-03T12:50:51;35.60;90.10
32694;DHT22;19084;44.716;10.218;2022-08-03T12:53:28;35.60;90.10
32694;DHT22;19084;44.716;10.218;2022-08-03T12:56:26;35.60;90.30
32694;DHT22;19084;44.716;10.218;2022-08-03T12:59:26;35.60;90.10
32694;DHT22;19084;44.716;10.218;2022-08-03T13:04:50;35.70;90.60
32694;DHT22;19084;44.716;10.218;2022-08-03T13:07:23;35.80;89.20
32694;DHT22;19084;44.716;10.218;2022-08-03T13:14:24;36.00;89.00
32694;DHT22;19084;44.716;10.218;2022-08-03T13:16:57;36.00;88.70
32694;DHT22;19084;44.716;10.218;2022-08-03T13:19:32;35.80;88.90
32694;DHT22;19084;44.716;10.218;2022-08-03T13:24:50;36.00;87.00
32694;DHT22;19084;44.716;10.218;2022-08-03T13:40:43;36.00;86.80
32694;DHT22;19084;44.716;10.218;2022-08-03T13:56:28;35.90;86.70
32694;DHT22;19084;44.716;10.218;2022-08-03T13:59:02;35.90;86.60
32694;DHT22;19084;44.716;10.218;2022-08-03T14:04:26;36.00;86.90
32694;DHT22;19084;44.716;10.218;2022-08-03T14:07:00;36.00;86.80
32694;DHT22;19084;44.716;10.218;2022-08-03T14:09:34;36.10;86.30
32694;DHT22;19084;44.716;10.218;2022-08-03T14:12:07;36.10;85.70
32694;DHT22;19084;44.716;10.218;2022-08-03T14:14:40;36.10;86.80
32694;DHT22;19084;44.716;10.218;2022-08-03T14:17:13;36.10;86.00
32694;DHT22;19084;44.716;10.218;2022-08-03T14:19:48;36.10;86.70
32694;DHT22;19084;44.716;10.218;2022-08-03T14:22:25;36.10;86.30
32694;DHT22;19084;44.716;10.218;2022-08-03T14:27:33;36.10;86.10
32694;DHT22;19084;44.716;10.218;2022-08-03T14:30:07;36.00;86.40
32694;DHT22;19084;44.716;10.218;2022-08-03T14:32:40;36.00;86.10
32694;DHT22;19084;44.716;10.218;2022-08-03T14:35:13;35.90;85.70
32694;DHT22;19084;44.716;10.218;2022-08-03T14:37:46;36.00;85.10
32694;DHT22;19084;44.716;10.218;2022-08-03T14:40:20;36.00;85.10
32694;DHT22;19084;44.716;10.218;2022-08-03T14:42:52;36.10;84.30
32694;DHT22;19084;44.716;10.218;2022-08-03T14:45:25;36.10;83.70
32694;DHT22;19084;44.716;10.218;2022-08-03T14:47:59;36.10;84.30
32694;DHT22;19084;44.716;10.218;2022-08-03T14:50:52;36.10;83.80
32694;DHT22;19084;44.716;10.218;2022-08-03T14:53:26;35.20;83.30
32694;DHT22;19084;44.716;10.218;2022-08-03T14:56:01;36.10;85.30
32694;DHT22;19084;44.716;10.218;2022-08-03T14:58:41;36.10;86.00
32694;DHT22;19084;44.716;10.218;2022-08-03T15:01:13;36.10;86.50
32694;DHT22;19084;44.716;10.218;2022-08-03T15:04:06;36.00;84.50
32694;DHT22;19084;44.716;10.218;2022-08-03T15:06:39;36.00;85.00
32694;DHT22;19084;44.716;10.218;2022-08-03T15:28:00;36.10;83.20
32694;DHT22;19084;44.716;10.218;2022-08-03T15:30:36;36.00;84.70
32694;DHT22;19084;44.716;10.218;2022-08-03T15:33:10;36.00;85.20
32694;DHT22;19084;44.716;10.218;2022-08-03T15:35:43;36.00;85.60
